sensor_id;sensor_type;location;lat;lon;timestamp;P1;durP1;ratioP1;P2;durP2;ratioP2
30553;SDS011;17335;50.720;7.452;2022-12-07T00:01:20;24.80;;;11.00;;
30553;SDS011;17335;50.720;7.452;2022-12-07T00:03:49;25.38;;;10.93;;
30553;SDS011;17335;50.720;7.452;2022-12-07T00:06:17;26.00;;;11.65;;
30553;SDS011;17335;50.720;7.452;2022-12-07T00:08:45;26.45;;;11.50;;
30553;SDS011;17335;50.720;7.452;2022-12-07T00:11:14;26.95;;;11.43;;
30553;SDS011;17335;50.720;7.452;2022-12-07T00:13:42;27.70;;;10.50;;
30553;SDS011;17335;50.720;7.452;2022-12-07T00:16:14;29.63;;;12.13;;
30553;SDS011;17335;50.720;7.452;2022-12-07T00:18:42;23.08;;;11.13;;
30553;SDS011;17335;50.720;7.452;2022-12-07T00:21:14;29.42;;;11.75;;
30553;SDS011;17335;50.720;7.452;2022-12-07T00:23:43;34.05;;;12.55;;
30553;SDS011;17335;50.720;7.452;2022-12-07T00:26:16;26.73;;;12.23;;
30553;SDS011;17335;50.720;7.452;2022-12-07T00:28:46;27.60;;;12.90;;
30553;SDS011;17335;50.720;7.452;2022-12-07T00:31:18;30.05;;;12.60;;
30553;SDS011;17335;50.720;7.452;2022-12-07T00:33:46;29.88;;;13.18;;
30553;SDS011;17335;50.720;7.452;2022-12-07T00:36:14;30.08;;;13.10;;
30553;SDS011;17335;50.720;7.452;2022-12-07T00:38:50;27.30;;;12.73;;
30553;SDS011;17335;50.720;7.452;2022-12-07T00:41:17;31.88;;;14.38;;
30553;SDS011;17335;50.720;7.452;2022-12-07T00:43:46;34.95;;;14.55;;
30553;SDS011;17335;50.720;7.452;2022-12-07T00:46:14;29.27;;;14.05;;
30553;SDS011;17335;50.720;7.452;2022-12-07T00:48:41;31.08;;;14.27;;
30553;SDS011;17335;50.720;7.452;2022-12-07T00:51:09;33.22;;;14.38;;
30553;SDS011;17335;50.720;7.452;2022-12-07T00:53:37;30.92;;;13.70;;
30553;SDS011;17335;50.720;7.452;2022-12-07T00:56:08;30.77;;;13.43;;
30553;SDS011;17335;50.720;7.452;2022-12-07T00:58:37;29.92;;;13.00;;
30553;SDS011;17335;50.720;7.452;2022-12-07T01:01:04;37.47;;;15.43;;
30553;SDS011;17335;50.720;7.452;2022-12-07T01:03:32;38.92;;;15.88;;
30553;SDS011;17335;50.720;7.452;2022-12-07T01:06:00;34.05;;;13.43;;
30553;SDS011;17335;50.720;7.452;2022-12-07T01:08:27;38.50;;;16.02;;
30553;SDS011;17335;50.720;7.452;2022-12-07T01:11:00;38.10;;;16.45;;
30553;SDS011;17335;50.720;7.452;2022-12-07T01:13:32;42.50;;;16.75;;
30553;SDS011;17335;50.720;7.452;2022-12-07T01:16:02;42.53;;;17.83;;
30553;SDS011;17335;50.720;7.452;2022-12-07T01:18:30;39.95;;;17.63;;
30553;SDS011;17335;50.720;7.452;2022-12-07T01:20:59;46.67;;;19.05;;
30553;SDS011;17335;50.720;7.452;2022-12-07T01:23:27;36.58;;;16.88;;
30553;SDS011;17335;50.720;7.452;2022-12-07T01:25:54;43.97;;;17.30;;
30553;SDS011;17335;50.720;7.452;2022-12-07T01:28:22;43.10;;;18.33;;
30553;SDS011;17335;50.720;7.452;2022-12-07T01:30:55;41.00;;;17.08;;
30553;SDS011;17335;50.720;7.452;2022-12-07T01:33:27;41.30;;;18.50;;
30553;SDS011;17335;50.720;7.452;2022-12-07T01:36:00;42.05;;;18.15;;
30553;SDS011;17335;50.720;7.452;2022-12-07T01:38:31;41.05;;;17.15;;
30553;SDS011;17335;50.720;7.452;2022-12-07T01:40:58;48.53;;;17.95;;
30553;SDS011;17335;50.720;7.452;2022-12-07T01:43:27;44.90;;;19.30;;
30553;SDS011;17335;50.720;7.452;2022-12-07T01:45:55;49.15;;;19.33;;
30553;SDS011;17335;50.720;7.452;2022-12-07T01:48:27;49.08;;;19.13;;
30553;SDS011;17335;50.720;7.452;2022-12-07T01:50:56;41.17;;;17.50;;
30553;SDS011;17335;50.720;7.452;2022-12-07T01:53:28;48.90;;;18.50;;
30553;SDS011;17335;50.720;7.452;2022-12-07T01:55:56;44.92;;;19.25;;
30553;SDS011;17335;50.720;7.452;2022-12-07T01:58:25;56.75;;;20.67;;
30553;SDS011;17335;50.720;7.452;2022-12-07T02:00:52;45.63;;;19.30;;
30553;SDS011;17335;50.720;7.452;2022-12-07T02:03:21;56.70;;;20.27;;
30553;SDS011;17335;50.720;7.452;2022-12-07T02:05:51;55.38;;;20.35;;
30553;SDS011;17335;50.720;7.452;2022-12-07T02:08:19;50.35;;;19.50;;
30553;SDS011;17335;50.720;7.452;2022-12-07T02:10:46;47.30;;;20.60;;
30553;SDS011;17335;50.720;7.452;2022-12-07T02:13:13;48.55;;;19.70;;
30553;SDS011;17335;50.720;7.452;2022-12-07T02:18:38;47.20;;;18.90;;
30553;SDS011;17335;50.720;7.452;2022-12-07T02:30:00;46.33;;;18.35;;
30553;SDS011;17335;50.720;7.452;2022-12-07T02:32:42;48.70;;;18.98;;
30553;SDS011;17335;50.720;7.452;2022-12-07T02:35:55;41.35;;;17.27;;
30553;SDS011;17335;50.720;7.452;2022-12-07T02:43:25;48.00;;;19.75;;
30553;SDS011;17335;50.720;7.452;2022-12-07T02:45:55;47.17;;;19.85;;
30553;SDS011;17335;50.720;7.452;2022-12-07T02:48:26;56.42;;;19.40;;
30553;SDS011;17335;50.720;7.452;2022-12-07T02:50:54;45.58;;;20.35;;
30553;SDS011;17335;50.720;7.452;2022-12-07T02:53:31;64.30;;;21.45;;
30553;SDS011;17335;50.720;7.452;2022-12-07T02:56:06;60.17;;;21.27;;
30553;SDS011;17335;50.720;7.452;2022-12-07T03:02:03;55.63;;;20.73;;
30553;SDS011;17335;50.720;7.452;2022-12-07T03:10:12;57.63;;;22.10;;
30553;SDS011;17335;50.720;7.452;2022-12-07T03:15:32;48.42;;;18.90;;
30553;SDS011;17335;50.720;7.452;2022-12-07T03:18:05;43.83;;;17.52;;
30553;SDS011;17335;50.720;7.452;2022-12-07T03:20:34;36.90;;;15.38;;
30553;SDS011;17335;50.720;7.452;2022-12-07T03:23:04;45.67;;;18.48;;
30553;SDS011;17335;50.720;7.452;2022-12-07T03:25:38;38.72;;;17.17;;
30553;SDS011;17335;50.720;7.452;2022-12-07T03:28:08;39.13;;;18.13;;
30553;SDS011;17335;50.720;7.452;2022-12-07T03:30:42;42.15;;;18.83;;
30553;SDS011;17335;50.720;7.452;2022-12-07T03:33:18;38.95;;;16.00;;
30553;SDS011;17335;50.720;7.452;2022-12-07T03:35:52;39.38;;;16.80;;
30553;SDS011;17335;50.720;7.452;2022-12-07T03:38:25;36.28;;;16.65;;
30553;SDS011;17335;50.720;7.452;2022-12-07T03:41:01;37.42;;;16.35;;
30553;SDS011;17335;50.720;7.452;2022-12-07T03:43:34;42.88;;;18.58;;
30553;SDS011;17335;50.720;7.452;2022-12-07T03:48:40;44.40;;;18.90;;
30553;SDS011;17335;50.720;7.452;2022-12-07T03:51:21;42.97;;;18.60;;
30553;SDS011;17335;50.720;7.452;2022-12-07T03:56:40;51.13;;;19.08;;
30553;SDS011;17335;50.720;7.452;2022-12-07T03:59:08;45.20;;;19.30;;
30553;SDS011;17335;50.720;7.452;2022-12-07T04:01:37;53.83;;;22.20;;
30553;SDS011;17335;50.720;7.452;2022-12-07T04:04:03;56.22;;;20.77;;
30553;SDS011;17335;50.720;7.452;2022-12-07T04:06:30;55.30;;;21.77;;
30553;SDS011;17335;50.720;7.452;2022-12-07T04:08:56;51.42;;;21.63;;
30553;SDS011;17335;50.720;7.452;2022-12-07T04:11:23;53.20;;;20.65;;
30553;SDS011;17335;50.720;7.452;2022-12-07T04:13:49;50.30;;;21.40;;
30553;SDS011;17335;50.720;7.452;2022-12-07T04:16:34;52.70;;;21.63;;
30553;SDS011;17335;50.720;7.452;2022-12-07T04:19:09;47.50;;;19.75;;
30553;SDS011;17335;50.720;7.452;2022-12-07T04:21:36;46.08;;;19.10;;
30553;SDS011;17335;50.720;7.452;2022-12-07T04:24:02;57.60;;;20.98;;
30553;SDS011;17335;50.720;7.452;2022-12-07T04:26:30;39.47;;;17.05;;
30553;SDS011;17335;50.720;7.452;2022-12-07T04:28:56;43.60;;;18.60;;
30553;SDS011;17335;50.720;7.452;2022-12-07T04:31:23;34.85;;;16.27;;
30553;SDS011;17335;50.720;7.452;2022-12-07T04:33:49;42.53;;;16.42;;
30553;SDS011;17335;50.720;7.452;2022-12-07T04:36:16;40.72;;;15.23;;
30553;SDS011;17335;50.720;7.452;2022-12-07T04:38:43;37.25;;;16.58;;
30553;SDS011;17335;50.720;7.452;2022-12-07T04:41:09;41.67;;;17.50;;
30553;SDS011;17335;50.720;7.452;2022-12-07T04:43:35;45.13;;;18.08;;
30553;SDS011;17335;50.720;7.452;2022-12-07T04:46:02;40.55;;;17.52;;
30553;SDS011;17335;50.720;7.452;2022-12-07T04:48:29;38.78;;;16.83;;
30553;SDS011;17335;50.720;7.452;2022-12-07T04:50:56;42.15;;;17.98;;
30553;SDS011;17335;50.720;7.452;2022-12-07T04:53:22;34.97;;;15.65;;
30553;SDS011;17335;50.720;7.452;2022-12-07T04:55:49;47.13;;;19.52;;
30553;SDS011;17335;50.720;7.452;2022-12-07T04:58:15;51.03;;;18.85;;
30553;SDS011;17335;50.720;7.452;2022-12-07T05:00:42;49.72;;;19.65;;
30553;SDS011;17335;50.720;7.452;2022-12-07T05:03:08;48.05;;;18.67;;
30553;SDS011;17335;50.720;7.452;2022-12-07T05:05:35;46.47;;;19.10;;
30553;SDS011;17335;50.720;7.452;2022-12-07T05:08:01;45.50;;;17.98;;
30553;SDS011;17335;50.720;7.452;2022-12-07T05:10:28;39.78;;;16.40;;
30553;SDS011;17335;50.720;7.452;2022-12-07T05:12:54;39.05;;;16.27;;
30553;SDS011;17335;50.720;7.452;2022-12-07T05:15:22;38.22;;;15.45;;
30553;SDS011;17335;50.720;7.452;2022-12-07T05:17:48;36.95;;;15.48;;
30553;SDS011;17335;50.720;7.452;2022-12-07T05:20:15;34.70;;;15.05;;
30553;SDS011;17335;50.720;7.452;2022-12-07T05:22:41;38.05;;;15.20;;
30553;SDS011;17335;50.720;7.452;2022-12-07T05:25:08;36.17;;;13.93;;
30553;SDS011;17335;50.720;7.452;2022-12-07T05:27:35;35.28;;;15.75;;
30553;SDS011;17335;50.720;7.452;2022-12-07T05:30:01;32.05;;;13.35;;
30553;SDS011;17335;50.720;7.452;2022-12-07T05:32:28;28.77;;;9.82;;
30553;SDS011;17335;50.720;7.452;2022-12-07T05:34:55;29.13;;;11.85;;
30553;SDS011;17335;50.720;7.452;2022-12-07T05:37:21;29.23;;;12.88;;
30553;SDS011;17335;50.720;7.452;2022-12-07T05:39:48;37.38;;;13.63;;
30553;SDS011;17335;50.720;7.452;2022-12-07T05:42:14;34.42;;;12.82;;
30553;SDS011;17335;50.720;7.452;2022-12-07T05:44:42;35.15;;;14.48;;
30553;SDS011;17335;50.720;7.452;2022-12-07T05:47:12;34.13;;;14.95;;
30553;SDS011;17335;50.720;7.452;2022-12-07T05:49:40;33.28;;;15.55;;
30553;SDS011;17335;50.720;7.452;2022-12-07T05:52:07;35.85;;;14.88;;
30553;SDS011;17335;50.720;7.452;2022-12-07T05:54:35;37.05;;;15.98;;
30553;SDS011;17335;50.720;7.452;2022-12-07T05:57:01;42.63;;;16.02;;
30553;SDS011;17335;50.720;7.452;2022-12-07T05:59:28;39.20;;;15.73;;
30553;SDS011;17335;50.720;7.452;2022-12-07T06:01:56;41.88;;;16.50;;
30553;SDS011;17335;50.720;7.452;2022-12-07T06:04:25;43.45;;;17.95;;
30553;SDS011;17335;50.720;7.452;2022-12-07T06:06:55;44.90;;;18.77;;
30553;SDS011;17335;50.720;7.452;2022-12-07T06:09:22;35.63;;;15.68;;
30553;SDS011;17335;50.720;7.452;2022-12-07T06:11:51;42.70;;;17.45;;
30553;SDS011;17335;50.720;7.452;2022-12-07T06:14:36;45.60;;;16.35;;
30553;SDS011;17335;50.720;7.452;2022-12-07T06:17:03;40.33;;;17.25;;
30553;SDS011;17335;50.720;7.452;2022-12-07T06:19:30;40.45;;;16.80;;
30553;SDS011;17335;50.720;7.452;2022-12-07T06:21:57;41.45;;;16.50;;
30553;SDS011;17335;50.720;7.452;2022-12-07T06:24:24;38.88;;;16.30;;
30553;SDS011;17335;50.720;7.452;2022-12-07T06:26:51;42.65;;;16.73;;
30553;SDS011;17335;50.720;7.452;2022-12-07T06:29:17;44.33;;;17.23;;
30553;SDS011;17335;50.720;7.452;2022-12-07T06:31:44;42.42;;;16.85;;
30553;SDS011;17335;50.720;7.452;2022-12-07T06:34:12;39.17;;;16.88;;
30553;SDS011;17335;50.720;7.452;2022-12-07T06:36:41;39.28;;;16.58;;
30553;SDS011;17335;50.720;7.452;2022-12-07T06:39:09;39.33;;;17.55;;
30553;SDS011;17335;50.720;7.452;2022-12-07T06:41:36;42.33;;;17.52;;
30553;SDS011;17335;50.720;7.452;2022-12-07T06:44:04;50.17;;;19.23;;
30553;SDS011;17335;50.720;7.452;2022-12-07T06:46:31;42.97;;;17.02;;
30553;SDS011;17335;50.720;7.452;2022-12-07T06:48:58;44.25;;;18.17;;
30553;SDS011;17335;50.720;7.452;2022-12-07T06:51:24;55.65;;;19.60;;
30553;SDS011;17335;50.720;7.452;2022-12-07T06:53:51;44.70;;;17.92;;
30553;SDS011;17335;50.720;7.452;2022-12-07T06:56:18;39.55;;;17.67;;
30553;SDS011;17335;50.720;7.452;2022-12-07T06:58:45;46.00;;;17.88;;
30553;SDS011;17335;50.720;7.452;2022-12-07T07:01:12;51.88;;;19.27;;
30553;SDS011;17335;50.720;7.452;2022-12-07T07:03:40;47.72;;;19.17;;
30553;SDS011;17335;50.720;7.452;2022-12-07T07:06:08;44.90;;;17.50;;
30553;SDS011;17335;50.720;7.452;2022-12-07T07:08:36;35.58;;;15.52;;
30553;SDS011;17335;50.720;7.452;2022-12-07T07:11:03;30.95;;;14.45;;
30553;SDS011;17335;50.720;7.452;2022-12-07T07:13:31;39.28;;;15.55;;
30553;SDS011;17335;50.720;7.452;2022-12-07T07:15:57;33.35;;;14.23;;
30553;SDS011;17335;50.720;7.452;2022-12-07T07:18:24;34.78;;;14.95;;
30553;SDS011;17335;50.720;7.452;2022-12-07T07:20:51;35.63;;;13.77;;
30553;SDS011;17335;50.720;7.452;2022-12-07T07:23:19;40.97;;;15.48;;
30553;SDS011;17335;50.720;7.452;2022-12-07T07:25:46;37.47;;;14.02;;
30553;SDS011;17335;50.720;7.452;2022-12-07T07:28:13;34.67;;;13.45;;
30553;SDS011;17335;50.720;7.452;2022-12-07T07:30:40;33.20;;;13.52;;
30553;SDS011;17335;50.720;7.452;2022-12-07T07:33:07;38.95;;;13.93;;
30553;SDS011;17335;50.720;7.452;2022-12-07T07:35:33;35.72;;;13.65;;
30553;SDS011;17335;50.720;7.452;2022-12-07T07:38:01;29.75;;;12.73;;
30553;SDS011;17335;50.720;7.452;2022-12-07T07:40:27;34.88;;;12.10;;
30553;SDS011;17335;50.720;7.452;2022-12-07T07:42:57;33.83;;;13.45;;
30553;SDS011;17335;50.720;7.452;2022-12-07T07:45:24;42.78;;;14.77;;
30553;SDS011;17335;50.720;7.452;2022-12-07T07:47:52;34.35;;;13.13;;
30553;SDS011;17335;50.720;7.452;2022-12-07T07:50:19;30.38;;;12.38;;
30553;SDS011;17335;50.720;7.452;2022-12-07T07:52:46;34.20;;;12.65;;
30553;SDS011;17335;50.720;7.452;2022-12-07T07:55:14;29.42;;;12.25;;
30553;SDS011;17335;50.720;7.452;2022-12-07T07:57:41;37.83;;;14.02;;
30553;SDS011;17335;50.720;7.452;2022-12-07T08:00:10;38.80;;;13.32;;
30553;SDS011;17335;50.720;7.452;2022-12-07T08:02:38;33.63;;;15.02;;
30553;SDS011;17335;50.720;7.452;2022-12-07T08:05:06;33.00;;;13.80;;
30553;SDS011;17335;50.720;7.452;2022-12-07T08:07:33;37.80;;;14.15;;
30553;SDS011;17335;50.720;7.452;2022-12-07T08:10:00;39.00;;;15.82;;
30553;SDS011;17335;50.720;7.452;2022-12-07T08:12:27;38.63;;;15.13;;
30553;SDS011;17335;50.720;7.452;2022-12-07T08:14:53;49.90;;;15.70;;
30553;SDS011;17335;50.720;7.452;2022-12-07T08:17:20;35.58;;;15.02;;
30553;SDS011;17335;50.720;7.452;2022-12-07T08:19:46;31.10;;;13.77;;
30553;SDS011;17335;50.720;7.452;2022-12-07T08:22:13;33.42;;;13.10;;
30553;SDS011;17335;50.720;7.452;2022-12-07T08:24:39;38.38;;;15.20;;
30553;SDS011;17335;50.720;7.452;2022-12-07T08:27:05;36.55;;;15.48;;
30553;SDS011;17335;50.720;7.452;2022-12-07T08:29:33;34.63;;;15.23;;
30553;SDS011;17335;50.720;7.452;2022-12-07T08:31:59;41.65;;;15.13;;
30553;SDS011;17335;50.720;7.452;2022-12-07T08:34:34;41.22;;;16.38;;
30553;SDS011;17335;50.720;7.452;2022-12-07T08:37:01;43.65;;;16.67;;
30553;SDS011;17335;50.720;7.452;2022-12-07T08:39:28;37.20;;;15.38;;
30553;SDS011;17335;50.720;7.452;2022-12-07T08:41:57;38.33;;;15.48;;
30553;SDS011;17335;50.720;7.452;2022-12-07T08:44:24;40.85;;;16.80;;
30553;SDS011;17335;50.720;7.452;2022-12-07T08:46:52;42.60;;;15.57;;
30553;SDS011;17335;50.720;7.452;2022-12-07T08:49:24;39.50;;;16.48;;
30553;SDS011;17335;50.720;7.452;2022-12-07T08:51:54;37.45;;;14.43;;
30553;SDS011;17335;50.720;7.452;2022-12-07T08:54:21;40.78;;;16.23;;
30553;SDS011;17335;50.720;7.452;2022-12-07T08:56:48;40.97;;;16.08;;
30553;SDS011;17335;50.720;7.452;2022-12-07T08:59:24;40.38;;;15.63;;
30553;SDS011;17335;50.720;7.452;2022-12-07T09:01:52;35.03;;;14.88;;
30553;SDS011;17335;50.720;7.452;2022-12-07T09:04:19;38.33;;;14.52;;
30553;SDS011;17335;50.720;7.452;2022-12-07T09:06:49;44.75;;;16.77;;
30553;SDS011;17335;50.720;7.452;2022-12-07T09:09:16;45.17;;;17.67;;
30553;SDS011;17335;50.720;7.452;2022-12-07T09:11:42;37.88;;;16.75;;
30553;SDS011;17335;50.720;7.452;2022-12-07T09:14:11;40.40;;;16.10;;
30553;SDS011;17335;50.720;7.452;2022-12-07T09:16:38;43.03;;;15.45;;
30553;SDS011;17335;50.720;7.452;2022-12-07T09:19:05;30.75;;;13.82;;
30553;SDS011;17335;50.720;7.452;2022-12-07T09:21:31;28.23;;;13.63;;
30553;SDS011;17335;50.720;7.452;2022-12-07T09:23:58;34.70;;;12.45;;
30553;SDS011;17335;50.720;7.452;2022-12-07T09:26:24;23.90;;;10.82;;
30553;SDS011;17335;50.720;7.452;2022-12-07T09:28:51;28.77;;;12.85;;
30553;SDS011;17335;50.720;7.452;2022-12-07T09:31:17;25.88;;;11.35;;
30553;SDS011;17335;50.720;7.452;2022-12-07T09:33:56;28.67;;;11.80;;
30553;SDS011;17335;50.720;7.452;2022-12-07T09:36:24;33.03;;;13.38;;
30553;SDS011;17335;50.720;7.452;2022-12-07T09:38:52;31.90;;;11.90;;
30553;SDS011;17335;50.720;7.452;2022-12-07T09:41:18;29.45;;;11.95;;
30553;SDS011;17335;50.720;7.452;2022-12-07T09:43:46;36.05;;;13.23;;
30553;SDS011;17335;50.720;7.452;2022-12-07T09:46:14;29.88;;;11.70;;
30553;SDS011;17335;50.720;7.452;2022-12-07T09:48:43;33.50;;;13.60;;
30553;SDS011;17335;50.720;7.452;2022-12-07T09:51:22;33.58;;;13.35;;
30553;SDS011;17335;50.720;7.452;2022-12-07T09:53:52;33.85;;;13.65;;
30553;SDS011;17335;50.720;7.452;2022-12-07T09:56:20;35.13;;;13.18;;
30553;SDS011;17335;50.720;7.452;2022-12-07T09:58:48;34.40;;;13.15;;
30553;SDS011;17335;50.720;7.452;2022-12-07T10:01:16;35.53;;;15.55;;
30553;SDS011;17335;50.720;7.452;2022-12-07T10:03:47;34.90;;;14.48;;
30553;SDS011;17335;50.720;7.452;2022-12-07T10:06:19;39.42;;;14.77;;
30553;SDS011;17335;50.720;7.452;2022-12-07T10:08:46;35.65;;;15.43;;
30553;SDS011;17335;50.720;7.452;2022-12-07T10:11:12;39.28;;;16.15;;
30553;SDS011;17335;50.720;7.452;2022-12-07T10:18:51;21.75;;;9.80;;
30553;SDS011;17335;50.720;7.452;2022-12-07T10:21:22;27.65;;;10.73;;
30553;SDS011;17335;50.720;7.452;2022-12-07T10:31:58;16.25;;;7.68;;
30553;SDS011;17335;50.720;7.452;2022-12-07T10:39:42;24.58;;;9.93;;
30553;SDS011;17335;50.720;7.452;2022-12-07T10:42:17;16.70;;;8.73;;
30553;SDS011;17335;50.720;7.452;2022-12-07T10:44:44;24.63;;;9.85;;
30553;SDS011;17335;50.720;7.452;2022-12-07T11:06:34;24.77;;;10.82;;
30553;SDS011;17335;50.720;7.452;2022-12-07T11:09:26;29.42;;;10.85;;
30553;SDS011;17335;50.720;7.452;2022-12-07T11:12:52;24.52;;;10.40;;
30553;SDS011;17335;50.720;7.452;2022-12-07T11:15:29;27.75;;;11.57;;
30553;SDS011;17335;50.720;7.452;2022-12-07T11:29:55;27.90;;;11.75;;
30553;SDS011;17335;50.720;7.452;2022-12-07T11:32:49;28.25;;;11.40;;
30553;SDS011;17335;50.720;7.452;2022-12-07T11:38:16;28.05;;;11.40;;
30553;SDS011;17335;50.720;7.452;2022-12-07T11:40:53;28.50;;;12.85;;
30553;SDS011;17335;50.720;7.452;2022-12-07T11:43:50;29.42;;;12.50;;
30553;SDS011;17335;50.720;7.452;2022-12-07T11:46:22;22.10;;;10.65;;
30553;SDS011;17335;50.720;7.452;2022-12-07T11:49:17;26.20;;;11.43;;
30553;SDS011;17335;50.720;7.452;2022-12-07T11:51:40;26.40;;;11.00;;
30553;SDS011;17335;50.720;7.452;2022-12-07T11:54:14;32.88;;;12.27;;
30553;SDS011;17335;50.720;7.452;2022-12-07T11:56:47;22.25;;;10.07;;
30553;SDS011;17335;50.720;7.452;2022-12-07T12:01:56;21.27;;;10.38;;
30553;SDS011;17335;50.720;7.452;2022-12-07T12:07:00;27.30;;;10.70;;
30553;SDS011;17335;50.720;7.452;2022-12-07T12:12:43;22.92;;;9.35;;
30553;SDS011;17335;50.720;7.452;2022-12-07T12:18:32;22.08;;;9.00;;
30553;SDS011;17335;50.720;7.452;2022-12-07T12:21:15;24.50;;;8.88;;
30553;SDS011;17335;50.720;7.452;2022-12-07T12:23:48;22.88;;;8.88;;
30553;SDS011;17335;50.720;7.452;2022-12-07T12:26:21;17.38;;;7.68;;
30553;SDS011;17335;50.720;7.452;2022-12-07T12:28:51;21.70;;;8.13;;
30553;SDS011;17335;50.720;7.452;2022-12-07T12:33:56;18.73;;;7.88;;
30553;SDS011;17335;50.720;7.452;2022-12-07T12:39:11;20.55;;;8.10;;
30553;SDS011;17335;50.720;7.452;2022-12-07T12:49:30;24.35;;;8.93;;
30553;SDS011;17335;50.720;7.452;2022-12-07T12:57:35;16.77;;;7.28;;
30553;SDS011;17335;50.720;7.452;2022-12-07T13:00:19;14.60;;;5.28;;
30553;SDS011;17335;50.720;7.452;2022-12-07T13:02:48;9.13;;;4.15;;
30553;SDS011;17335;50.720;7.452;2022-12-07T13:07:59;6.40;;;3.00;;
30553;SDS011;17335;50.720;7.452;2022-12-07T13:13:21;6.65;;;2.85;;
30553;SDS011;17335;50.720;7.452;2022-12-07T13:15:42;5.28;;;2.50;;
30553;SDS011;17335;50.720;7.452;2022-12-07T13:28:47;7.65;;;3.53;;
30553;SDS011;17335;50.720;7.452;2022-12-07T13:34:32;11.57;;;4.47;;
30553;SDS011;17335;50.720;7.452;2022-12-07T13:39:53;16.88;;;5.45;;
30553;SDS011;17335;50.720;7.452;2022-12-07T13:42:32;11.10;;;5.13;;
30553;SDS011;17335;50.720;7.452;2022-12-07T13:45:22;13.15;;;5.78;;
30553;SDS011;17335;50.720;7.452;2022-12-07T13:48:30;12.90;;;5.43;;
30553;SDS011;17335;50.720;7.452;2022-12-07T13:50:59;14.13;;;6.47;;
30553;SDS011;17335;50.720;7.452;2022-12-07T13:53:27;15.00;;;6.03;;
30553;SDS011;17335;50.720;7.452;2022-12-07T13:55:57;14.07;;;6.72;;
30553;SDS011;17335;50.720;7.452;2022-12-07T13:58:26;18.13;;;6.35;;
30553;SDS011;17335;50.720;7.452;2022-12-07T14:00:56;12.50;;;6.13;;
30553;SDS011;17335;50.720;7.452;2022-12-07T14:03:25;21.20;;;6.82;;
30553;SDS011;17335;50.720;7.452;2022-12-07T14:09:16;26.98;;;6.70;;
30553;SDS011;17335;50.720;7.452;2022-12-07T14:11:46;23.02;;;7.07;;
30553;SDS011;17335;50.720;7.452;2022-12-07T14:14:22;14.88;;;7.00;;
30553;SDS011;17335;50.720;7.452;2022-12-07T14:17:08;15.65;;;6.97;;
30553;SDS011;17335;50.720;7.452;2022-12-07T14:24:58;14.77;;;6.97;;
30553;SDS011;17335;50.720;7.452;2022-12-07T14:27:37;17.45;;;6.40;;
30553;SDS011;17335;50.720;7.452;2022-12-07T14:30:05;23.10;;;7.45;;
30553;SDS011;17335;50.720;7.452;2022-12-07T14:32:32;17.90;;;6.70;;
30553;SDS011;17335;50.720;7.452;2022-12-07T14:35:11;22.05;;;6.70;;
30553;SDS011;17335;50.720;7.452;2022-12-07T14:37:39;20.90;;;7.63;;
30553;SDS011;17335;50.720;7.452;2022-12-07T14:40:11;15.38;;;6.50;;
30553;SDS011;17335;50.720;7.452;2022-12-07T14:42:39;12.48;;;5.57;;
30553;SDS011;17335;50.720;7.452;2022-12-07T14:45:17;16.88;;;6.82;;
30553;SDS011;17335;50.720;7.452;2022-12-07T14:47:47;20.65;;;6.65;;
30553;SDS011;17335;50.720;7.452;2022-12-07T14:50:35;17.23;;;6.65;;
30553;SDS011;17335;50.720;7.452;2022-12-07T14:53:12;19.75;;;6.53;;
30553;SDS011;17335;50.720;7.452;2022-12-07T14:58:16;12.18;;;5.63;;
30553;SDS011;17335;50.720;7.452;2022-12-07T15:00:44;17.67;;;7.28;;
30553;SDS011;17335;50.720;7.452;2022-12-07T15:03:11;14.88;;;6.38;;
30553;SDS011;17335;50.720;7.452;2022-12-07T15:05:39;21.67;;;6.43;;
30553;SDS011;17335;50.720;7.452;2022-12-07T15:08:08;13.20;;;5.60;;
30553;SDS011;17335;50.720;7.452;2022-12-07T15:10:36;12.68;;;6.40;;
30553;SDS011;17335;50.720;7.452;2022-12-07T15:13:04;17.52;;;6.13;;
30553;SDS011;17335;50.720;7.452;2022-12-07T15:15:51;14.48;;;6.40;;
30553;SDS011;17335;50.720;7.452;2022-12-07T15:18:19;13.73;;;5.82;;
30553;SDS011;17335;50.720;7.452;2022-12-07T15:20:46;24.17;;;6.72;;
30553;SDS011;17335;50.720;7.452;2022-12-07T15:23:13;13.00;;;5.70;;
30553;SDS011;17335;50.720;7.452;2022-12-07T15:25:45;15.43;;;6.05;;
30553;SDS011;17335;50.720;7.452;2022-12-07T15:28:13;14.85;;;5.70;;
30553;SDS011;17335;50.720;7.452;2022-12-07T15:30:41;12.35;;;5.55;;
30553;SDS011;17335;50.720;7.452;2022-12-07T15:33:11;16.30;;;5.72;;
30553;SDS011;17335;50.720;7.452;2022-12-07T15:35:39;14.45;;;5.55;;
30553;SDS011;17335;50.720;7.452;2022-12-07T15:38:09;12.73;;;5.15;;
30553;SDS011;17335;50.720;7.452;2022-12-07T15:40:36;14.13;;;5.60;;
30553;SDS011;17335;50.720;7.452;2022-12-07T15:43:03;14.68;;;5.80;;
30553;SDS011;17335;50.720;7.452;2022-12-07T15:45:30;16.58;;;5.28;;
30553;SDS011;17335;50.720;7.452;2022-12-07T15:47:56;11.48;;;4.78;;
30553;SDS011;17335;50.720;7.452;2022-12-07T15:50:43;10.85;;;4.20;;
30553;SDS011;17335;50.720;7.452;2022-12-07T15:53:09;10.23;;;4.72;;
30553;SDS011;17335;50.720;7.452;2022-12-07T15:55:38;11.15;;;4.93;;
30553;SDS011;17335;50.720;7.452;2022-12-07T15:58:04;11.40;;;4.07;;
30553;SDS011;17335;50.720;7.452;2022-12-07T16:00:31;13.52;;;6.43;;
30553;SDS011;17335;50.720;7.452;2022-12-07T16:02:58;13.07;;;6.30;;
30553;SDS011;17335;50.720;7.452;2022-12-07T16:05:25;39.33;;;24.45;;
30553;SDS011;17335;50.720;7.452;2022-12-07T16:07:51;14.45;;;8.40;;
30553;SDS011;17335;50.720;7.452;2022-12-07T16:10:18;20.25;;;9.40;;
30553;SDS011;17335;50.720;7.452;2022-12-07T16:12:44;11.70;;;4.55;;
30553;SDS011;17335;50.720;7.452;2022-12-07T16:15:10;12.27;;;5.03;;
30553;SDS011;17335;50.720;7.452;2022-12-07T16:17:37;12.23;;;5.65;;
30553;SDS011;17335;50.720;7.452;2022-12-07T16:20:04;14.15;;;5.18;;
30553;SDS011;17335;50.720;7.452;2022-12-07T16:22:31;11.73;;;4.78;;
30553;SDS011;17335;50.720;7.452;2022-12-07T16:24:57;13.25;;;5.50;;
30553;SDS011;17335;50.720;7.452;2022-12-07T16:27:24;12.73;;;5.35;;
30553;SDS011;17335;50.720;7.452;2022-12-07T16:29:50;11.43;;;4.38;;
30553;SDS011;17335;50.720;7.452;2022-12-07T16:32:17;14.15;;;5.38;;
30553;SDS011;17335;50.720;7.452;2022-12-07T16:34:43;12.95;;;5.47;;
30553;SDS011;17335;50.720;7.452;2022-12-07T16:37:10;14.15;;;5.97;;
30553;SDS011;17335;50.720;7.452;2022-12-07T16:39:36;14.55;;;6.50;;
30553;SDS011;17335;50.720;7.452;2022-12-07T16:42:02;16.38;;;5.60;;
30553;SDS011;17335;50.720;7.452;2022-12-07T16:44:29;11.57;;;5.78;;
30553;SDS011;17335;50.720;7.452;2022-12-07T16:46:57;17.15;;;6.50;;
30553;SDS011;17335;50.720;7.452;2022-12-07T16:49:24;13.52;;;6.10;;
30553;SDS011;17335;50.720;7.452;2022-12-07T16:51:50;16.92;;;7.18;;
30553;SDS011;17335;50.720;7.452;2022-12-07T16:54:37;14.20;;;7.15;;
30553;SDS011;17335;50.720;7.452;2022-12-07T16:57:04;13.25;;;7.38;;
30553;SDS011;17335;50.720;7.452;2022-12-07T16:59:31;10.65;;;6.30;;
30553;SDS011;17335;50.720;7.452;2022-12-07T17:01:57;15.82;;;6.63;;
30553;SDS011;17335;50.720;7.452;2022-12-07T17:04:50;17.70;;;7.70;;
30553;SDS011;17335;50.720;7.452;2022-12-07T17:07:41;20.67;;;7.60;;
30553;SDS011;17335;50.720;7.452;2022-12-07T17:10:32;27.58;;;9.98;;
30553;SDS011;17335;50.720;7.452;2022-12-07T17:13:25;20.35;;;9.30;;